Fort Oglethorpe, Georgia
Current Conditions -  °F | °C
As of 9:53 PM on Wednesday 26 Nov 2014 (Local Time) from KCHA Reporting Station
Light Rain Light Rain  
Wind Chill: 40°   Ceiling: 4500
Heat Index: 46°   Visibility: 9mi
Dew Point: 38°   Wind: 13mph
Humidity: 73%   Direction: 220°SW
Pressure: 30.06"   Gusts: NA
Location:  34.95°N, 85.26°W
Report Text: KCHA 270253Z 22011KT 9SM -RA BKN045 OVC070 08/03 A3006 RMK AO2 SLP178 P0000 60000 T00780033 53006
Loading
Personal Weather Stations






























Interactive Weather Map New forecast layout! Learn more

10-Day Weather Forecast

Advertisements
Track Severe Weather on mobile